PWSweather.com
Personal Weather Stations
Station Observations
KOMOKA
Komoka Village, Komoka, ON N0L IRO

Komoka VillageKomoka, ON N0L IRO

Lat: 42.9542444, Lon: -81.4348861

Elevation: 805

Station Type: Davis Vantage Pro 2

www.komokaweather.com

High Low Average
Temperature 58.8°F14.9°C 38.3°F3.5°C 48.1°F8.9°C
Dew Point 42.6°F5.9°C 30.4°F-0.9°C 36.7°F2.6°C
Winds 11.0 mph 17.7 kmh Calm Calm 4.0 mph NNE6.4 kmh NNE
Wind Gusts 25.0 mph40.2 kmh -- 9.0 mph14.5 kmh
Humidity 76% 48% 65%
Pressure 30.36 in1028.1 mb 29.91 in1012.9 mb -
Precipitation 0.00 in0.0 mm - -
Hour Temp Dew Point Humidity Winds Wind Gusts Pressure Precip Precip Rate Daily Precip Total
12:05 AM 39.2°F4.0°C 32.2°F0.1°C 76% Calm Calm -- 30.36 in1028.1 mb 0.00 in0.0 mm 0.00 in0.0 mm 0.00 in0.0 mm
12:12 AM 39.2°F4.0°C 32.0°F0.0°C 75% Calm Calm -- 30.36 in1028.1 mb 0.00 in0.0 mm 0.00 in0.0 mm 0.00 in0.0 mm
12:19 AM 39.0°F3.9°C 32.0°F0.0°C 76% Calm Calm -- 30.35 in1027.8 mb 0.00 in0.0 mm 0.00 in0.0 mm 0.00 in0.0 mm
12:26 AM 38.8°F3.8°C 32.0°F0.0°C 76% Calm Calm -- 30.35 in1027.8 mb 0.00 in0.0 mm 0.00 in0.0 mm 0.00 in0.0 mm
12:33 AM 38.8°F3.8°C 32.0°F0.0°C 76% Calm Calm -- 30.35 in1027.8 mb 0.00 in0.0 mm 0.00 in0.0 mm 0.00 in0.0 mm
12:40 AM 38.8°F3.8°C 32.0°F0.0°C 76% Calm Calm -- 30.35 in1027.8 mb 0.00 in0.0 mm 0.00 in0.0 mm 0.00 in0.0 mm
12:47 AM 38.8°F3.8°C 31.8°F-0.1°C 76% Calm Calm -- 30.35 in1027.8 mb 0.00 in0.0 mm 0.00 in0.0 mm 0.00 in0.0 mm
12:54 AM 38.8°F3.8°C 32.0°F0.0°C 76% Calm Calm 1.0 mph1.6 kmh 30.35 in1027.8 mb 0.00 in0.0 mm 0.00 in0.0 mm 0.00 in0.0 mm
01:01 AM 38.8°F3.8°C 31.8°F-0.1°C 76% Calm Calm -- 30.35 in1027.8 mb 0.00 in0.0 mm 0.00 in0.0 mm 0.00 in0.0 mm
01:08 AM 38.8°F3.8°C 32.0°F0.0°C 76% 1.0 mph NE1.6 kmh NE 5.0 mph8.0 kmh 30.35 in1027.8 mb 0.00 in0.0 mm 0.00 in0.0 mm 0.00 in0.0 mm
01:15 AM 39.0°F3.9°C 32.0°F0.0°C 76% 1.0 mph NE1.6 kmh NE 5.0 mph8.0 kmh 30.35 in1027.8 mb 0.00 in0.0 mm 0.00 in0.0 mm 0.00 in0.0 mm
01:22 AM 39.0°F3.9°C 32.2°F0.1°C 76% 1.0 mph NE1.6 kmh NE 3.0 mph4.8 kmh 30.35 in1027.8 mb 0.00 in0.0 mm 0.00 in0.0 mm 0.00 in0.0 mm
01:29 AM 39.0°F3.9°C 32.0°F0.0°C 76% Calm Calm -- 30.35 in1027.8 mb 0.00 in0.0 mm 0.00 in0.0 mm 0.00 in0.0 mm
01:36 AM 39.0°F3.9°C 32.0°F0.0°C 76% Calm Calm 4.0 mph6.4 kmh 30.34 in1027.4 mb 0.00 in0.0 mm 0.00 in0.0 mm 0.00 in0.0 mm
01:43 AM 39.0°F3.9°C 32.0°F0.0°C 76% 1.0 mph NE1.6 kmh NE 5.0 mph8.0 kmh 30.34 in1027.4 mb 0.00 in0.0 mm 0.00 in0.0 mm 0.00 in0.0 mm
01:50 AM 39.0°F3.9°C 31.8°F-0.1°C 75% 3.0 mph NE4.8 kmh NE 5.0 mph8.0 kmh 30.34 in1027.4 mb 0.00 in0.0 mm 0.00 in0.0 mm 0.00 in0.0 mm
01:57 AM 39.0°F3.9°C 31.8°F-0.1°C 75% 3.0 mph NE4.8 kmh NE 5.0 mph8.0 kmh 30.34 in1027.4 mb 0.00 in0.0 mm 0.00 in0.0 mm 0.00 in0.0 mm
02:04 AM 38.8°F3.8°C 31.6°F-0.2°C 75% 1.0 mph NE1.6 kmh NE 5.0 mph8.0 kmh 30.34 in1027.4 mb 0.00 in0.0 mm 0.00 in0.0 mm 0.00 in0.0 mm
02:11 AM 38.7°F3.7°C 31.5°F-0.3°C 75% 1.0 mph NE1.6 kmh NE 4.0 mph6.4 kmh 30.34 in1027.4 mb 0.00 in0.0 mm 0.00 in0.0 mm 0.00 in0.0 mm
02:18 AM 38.7°F3.7°C 31.5°F-0.3°C 75% 1.0 mph NE1.6 kmh NE 5.0 mph8.0 kmh 30.34 in1027.4 mb 0.00 in0.0 mm 0.00 in0.0 mm 0.00 in0.0 mm
02:25 AM 38.7°F3.7°C 31.5°F-0.3°C 75% 3.0 mph NE4.8 kmh NE 5.0 mph8.0 kmh 30.33 in1027.1 mb 0.00 in0.0 mm 0.00 in0.0 mm 0.00 in0.0 mm
02:32 AM 38.7°F3.7°C 31.5°F-0.3°C 75% 3.0 mph NE4.8 kmh NE 5.0 mph8.0 kmh 30.33 in1027.1 mb 0.00 in0.0 mm 0.00 in0.0 mm 0.00 in0.0 mm
02:39 AM 38.7°F3.7°C 31.1°F-0.5°C 74% 3.0 mph NE4.8 kmh NE 5.0 mph8.0 kmh 30.33 in1027.1 mb 0.00 in0.0 mm 0.00 in0.0 mm 0.00 in0.0 mm
02:46 AM 38.5°F3.6°C 30.9°F-0.6°C 74% 3.0 mph NE4.8 kmh NE 7.0 mph11.3 kmh 30.33 in1027.1 mb 0.00 in0.0 mm 0.00 in0.0 mm 0.00 in0.0 mm
02:53 AM 38.5°F3.6°C 30.9°F-0.6°C 74% 3.0 mph NE4.8 kmh NE 7.0 mph11.3 kmh 30.33 in1027.1 mb 0.00 in0.0 mm 0.00 in0.0 mm 0.00 in0.0 mm
03:00 AM 38.5°F3.6°C 30.9°F-0.6°C 74% 3.0 mph NE4.8 kmh NE 7.0 mph11.3 kmh 30.33 in1027.1 mb 0.00 in0.0 mm 0.00 in0.0 mm 0.00 in0.0 mm
03:07 AM 38.7°F3.7°C 31.1°F-0.5°C 74% 3.0 mph NE4.8 kmh NE 5.0 mph8.0 kmh 30.33 in1027.1 mb 0.00 in0.0 mm 0.00 in0.0 mm 0.00 in0.0 mm
03:14 AM 38.7°F3.7°C 31.1°F-0.5°C 74% 3.0 mph NE4.8 kmh NE 5.0 mph8.0 kmh 30.33 in1027.1 mb 0.00 in0.0 mm 0.00 in0.0 mm 0.00 in0.0 mm
03:21 AM 38.5°F3.6°C 30.9°F-0.6°C 74% 3.0 mph NE4.8 kmh NE 4.0 mph6.4 kmh 30.33 in1027.1 mb 0.00 in0.0 mm 0.00 in0.0 mm 0.00 in0.0 mm
03:28 AM 38.3°F3.5°C 30.7°F-0.7°C 74% 3.0 mph NE4.8 kmh NE 7.0 mph11.3 kmh 30.33 in1027.1 mb 0.00 in0.0 mm 0.00 in0.0 mm 0.00 in0.0 mm
03:35 AM 38.3°F3.5°C 30.7°F-0.7°C 74% 3.0 mph NE4.8 kmh NE 8.0 mph12.9 kmh 30.32 in1026.8 mb 0.00 in0.0 mm 0.00 in0.0 mm 0.00 in0.0 mm
03:42 AM 38.5°F3.6°C 30.9°F-0.6°C 74% 4.0 mph NE6.4 kmh NE 7.0 mph11.3 kmh 30.32 in1026.8 mb 0.00 in0.0 mm 0.00 in0.0 mm 0.00 in0.0 mm
03:49 AM 38.5°F3.6°C 30.9°F-0.6°C 74% 4.0 mph NE6.4 kmh NE 7.0 mph11.3 kmh 30.32 in1026.8 mb 0.00 in0.0 mm 0.00 in0.0 mm 0.00 in0.0 mm
03:56 AM 38.7°F3.7°C 30.7°F-0.7°C 73% 3.0 mph NE4.8 kmh NE 7.0 mph11.3 kmh 30.32 in1026.8 mb 0.00 in0.0 mm 0.00 in0.0 mm 0.00 in0.0 mm
04:03 AM 38.5°F3.6°C 30.6°F-0.8°C 73% 3.0 mph NE4.8 kmh NE 7.0 mph11.3 kmh 30.32 in1026.8 mb 0.00 in0.0 mm 0.00 in0.0 mm 0.00 in0.0 mm
04:10 AM 38.5°F3.6°C 30.6°F-0.8°C 73% 3.0 mph NE4.8 kmh NE 5.0 mph8.0 kmh 30.32 in1026.8 mb 0.00 in0.0 mm 0.00 in0.0 mm 0.00 in0.0 mm
04:17 AM 38.5°F3.6°C 30.6°F-0.8°C 73% 3.0 mph NE4.8 kmh NE 5.0 mph8.0 kmh 30.31 in1026.4 mb 0.00 in0.0 mm 0.00 in0.0 mm 0.00 in0.0 mm
04:24 AM 38.5°F3.6°C 30.6°F-0.8°C 73% 5.0 mph NE8.0 kmh NE 9.0 mph14.5 kmh 30.30 in1026.1 mb 0.00 in0.0 mm 0.00 in0.0 mm 0.00 in0.0 mm
04:31 AM 38.7°F3.7°C 30.7°F-0.7°C 73% 4.0 mph NE6.4 kmh NE 9.0 mph14.5 kmh 30.31 in1026.4 mb 0.00 in0.0 mm 0.00 in0.0 mm 0.00 in0.0 mm
04:38 AM 38.7°F3.7°C 30.4°F-0.9°C 72% 3.0 mph NE4.8 kmh NE 5.0 mph8.0 kmh 30.30 in1026.1 mb 0.00 in0.0 mm 0.00 in0.0 mm 0.00 in0.0 mm
04:45 AM 38.7°F3.7°C 30.4°F-0.9°C 72% 4.0 mph NE6.4 kmh NE 7.0 mph11.3 kmh 30.30 in1026.1 mb 0.00 in0.0 mm 0.00 in0.0 mm 0.00 in0.0 mm
04:52 AM 39.0°F3.9°C 30.7°F-0.7°C 72% 4.0 mph NE6.4 kmh NE 8.0 mph12.9 kmh 30.30 in1026.1 mb 0.00 in0.0 mm 0.00 in0.0 mm 0.00 in0.0 mm
04:59 AM 39.2°F4.0°C 30.9°F-0.6°C 72% 4.0 mph ENE6.4 kmh ENE 9.0 mph14.5 kmh 30.30 in1026.1 mb 0.00 in0.0 mm 0.00 in0.0 mm 0.00 in0.0 mm
05:06 AM 39.4°F4.1°C 31.1°F-0.5°C 72% 4.0 mph ENE6.4 kmh ENE 8.0 mph12.9 kmh 30.30 in1026.1 mb 0.00 in0.0 mm 0.00 in0.0 mm 0.00 in0.0 mm
05:13 AM 39.4°F4.1°C 31.1°F-0.5°C 72% 3.0 mph NE4.8 kmh NE 7.0 mph11.3 kmh 30.30 in1026.1 mb 0.00 in0.0 mm 0.00 in0.0 mm 0.00 in0.0 mm
05:20 AM 39.4°F4.1°C 31.1°F-0.5°C 72% 3.0 mph NE4.8 kmh NE 7.0 mph11.3 kmh 30.30 in1026.1 mb 0.00 in0.0 mm 0.00 in0.0 mm 0.00 in0.0 mm
05:27 AM 39.6°F4.2°C 31.3°F-0.4°C 72% 3.0 mph ENE4.8 kmh ENE 7.0 mph11.3 kmh 30.30 in1026.1 mb 0.00 in0.0 mm 0.00 in0.0 mm 0.00 in0.0 mm
05:34 AM 39.7°F4.3°C 31.5°F-0.3°C 72% 3.0 mph ENE4.8 kmh ENE 7.0 mph11.3 kmh 30.30 in1026.1 mb 0.00 in0.0 mm 0.00 in0.0 mm 0.00 in0.0 mm
05:41 AM 39.7°F4.3°C 31.5°F-0.3°C 72% 3.0 mph ENE4.8 kmh ENE 7.0 mph11.3 kmh 30.30 in1026.1 mb 0.00 in0.0 mm 0.00 in0.0 mm 0.00 in0.0 mm
05:48 AM 39.6°F4.2°C 31.3°F-0.4°C 72% 3.0 mph ENE4.8 kmh ENE 7.0 mph11.3 kmh 30.30 in1026.1 mb 0.00 in0.0 mm 0.00 in0.0 mm 0.00 in0.0 mm
05:55 AM 39.7°F4.3°C 31.5°F-0.3°C 72% 3.0 mph ENE4.8 kmh ENE 5.0 mph8.0 kmh 30.30 in1026.1 mb 0.00 in0.0 mm 0.00 in0.0 mm 0.00 in0.0 mm
06:02 AM 39.7°F4.3°C 31.5°F-0.3°C 72% 3.0 mph ENE4.8 kmh ENE 8.0 mph12.9 kmh 30.29 in1025.7 mb 0.00 in0.0 mm 0.00 in0.0 mm 0.00 in0.0 mm
06:09 AM 39.7°F4.3°C 31.5°F-0.3°C 72% 3.0 mph ENE4.8 kmh ENE 9.0 mph14.5 kmh 30.29 in1025.7 mb 0.00 in0.0 mm 0.00 in0.0 mm 0.00 in0.0 mm
06:16 AM 39.9°F4.4°C 31.6°F-0.2°C 72% 4.0 mph ENE6.4 kmh ENE 12.0 mph19.3 kmh 30.29 in1025.7 mb 0.00 in0.0 mm 0.00 in0.0 mm 0.00 in0.0 mm
06:23 AM 39.9°F4.4°C 31.6°F-0.2°C 72% 3.0 mph ENE4.8 kmh ENE 7.0 mph11.3 kmh 30.29 in1025.7 mb 0.00 in0.0 mm 0.00 in0.0 mm 0.00 in0.0 mm
06:30 AM 39.9°F4.4°C 31.6°F-0.2°C 72% 3.0 mph NE4.8 kmh NE 8.0 mph12.9 kmh 30.29 in1025.7 mb 0.00 in0.0 mm 0.00 in0.0 mm 0.00 in0.0 mm
06:37 AM 39.9°F4.4°C 32.0°F0.0°C 73% 3.0 mph ENE4.8 kmh ENE 5.0 mph8.0 kmh 30.30 in1026.1 mb 0.00 in0.0 mm 0.00 in0.0 mm 0.00 in0.0 mm
06:44 AM 39.9°F4.4°C 32.0°F0.0°C 73% 3.0 mph NE4.8 kmh NE 5.0 mph8.0 kmh 30.30 in1026.1 mb 0.00 in0.0 mm 0.00 in0.0 mm 0.00 in0.0 mm
06:51 AM 40.1°F4.5°C 32.2°F0.1°C 73% 3.0 mph NE4.8 kmh NE 5.0 mph8.0 kmh 30.30 in1026.1 mb 0.00 in0.0 mm 0.00 in0.0 mm 0.00 in0.0 mm
06:58 AM 40.3°F4.6°C 32.2°F0.1°C 73% 3.0 mph NE4.8 kmh NE 7.0 mph11.3 kmh 30.30 in1026.1 mb 0.00 in0.0 mm 0.00 in0.0 mm 0.00 in0.0 mm
07:05 AM 40.5°F4.7°C 32.4°F0.2°C 73% 4.0 mph NE6.4 kmh NE 8.0 mph12.9 kmh 30.30 in1026.1 mb 0.00 in0.0 mm 0.00 in0.0 mm 0.00 in0.0 mm
07:12 AM 40.8°F4.9°C 32.5°F0.3°C 72% 4.0 mph NE6.4 kmh NE 12.0 mph19.3 kmh 30.30 in1026.1 mb 0.00 in0.0 mm 0.00 in0.0 mm 0.00 in0.0 mm
07:19 AM 41.4°F5.2°C 32.9°F0.5°C 72% 4.0 mph NE6.4 kmh NE 12.0 mph19.3 kmh 30.29 in1025.7 mb 0.00 in0.0 mm 0.00 in0.0 mm 0.00 in0.0 mm
07:26 AM 41.7°F5.4°C 33.4°F0.8°C 72% 5.0 mph NE8.0 kmh NE 12.0 mph19.3 kmh 30.30 in1026.1 mb 0.00 in0.0 mm 0.00 in0.0 mm 0.00 in0.0 mm
07:33 AM 42.3°F5.7°C 33.4°F0.8°C 71% 5.0 mph NE8.0 kmh NE 9.0 mph14.5 kmh 30.29 in1025.7 mb 0.00 in0.0 mm 0.00 in0.0 mm 0.00 in0.0 mm
07:40 AM 42.6°F5.9°C 33.8°F1.0°C 71% 5.0 mph ENE8.0 kmh ENE 9.0 mph14.5 kmh 30.29 in1025.7 mb 0.00 in0.0 mm 0.00 in0.0 mm 0.00 in0.0 mm
07:47 AM 43.0°F6.1°C 33.8°F1.0°C 70% 5.0 mph NE8.0 kmh NE 13.0 mph20.9 kmh 30.29 in1025.7 mb 0.00 in0.0 mm 0.00 in0.0 mm 0.00 in0.0 mm
07:54 AM 43.3°F6.3°C 34.2°F1.2°C 70% 7.0 mph ENE11.3 kmh ENE 13.0 mph20.9 kmh 30.29 in1025.7 mb 0.00 in0.0 mm 0.00 in0.0 mm 0.00 in0.0 mm
08:01 AM 43.9°F6.6°C 34.7°F1.5°C 70% 7.0 mph ENE11.3 kmh ENE 15.0 mph24.1 kmh 30.29 in1025.7 mb 0.00 in0.0 mm 0.00 in0.0 mm 0.00 in0.0 mm
08:08 AM 44.4°F6.9°C 35.2°F1.8°C 70% 7.0 mph ENE11.3 kmh ENE 15.0 mph24.1 kmh 30.29 in1025.7 mb 0.00 in0.0 mm 0.00 in0.0 mm 0.00 in0.0 mm
08:15 AM 45.1°F7.3°C 35.6°F2.0°C 69% 5.0 mph ENE8.0 kmh ENE 13.0 mph20.9 kmh 30.28 in1025.4 mb 0.00 in0.0 mm 0.00 in0.0 mm 0.00 in0.0 mm
08:22 AM 45.9°F7.7°C 36.1°F2.3°C 69% 5.0 mph NE8.0 kmh NE 12.0 mph19.3 kmh 30.28 in1025.4 mb 0.00 in0.0 mm 0.00 in0.0 mm 0.00 in0.0 mm
08:29 AM 46.2°F7.9°C 36.3°F2.4°C 68% 5.0 mph NE8.0 kmh NE 15.0 mph24.1 kmh 30.28 in1025.4 mb 0.00 in0.0 mm 0.00 in0.0 mm 0.00 in0.0 mm
08:36 AM 46.8°F8.2°C 36.7°F2.6°C 68% 5.0 mph NE8.0 kmh NE 15.0 mph24.1 kmh 30.28 in1025.4 mb 0.00 in0.0 mm 0.00 in0.0 mm 0.00 in0.0 mm
08:43 AM 47.5°F8.6°C 37.4°F3.0°C 68% 5.0 mph NNE8.0 kmh NNE 15.0 mph24.1 kmh 30.27 in1025.1 mb 0.00 in0.0 mm 0.00 in0.0 mm 0.00 in0.0 mm
08:50 AM 47.8°F8.8°C 37.4°F3.0°C 67% 7.0 mph N11.3 kmh N 16.0 mph25.7 kmh 30.27 in1025.1 mb 0.00 in0.0 mm 0.00 in0.0 mm 0.00 in0.0 mm
08:57 AM 48.7°F9.3°C 38.3°F3.5°C 67% 5.0 mph N8.0 kmh N 16.0 mph25.7 kmh 30.27 in1025.1 mb 0.00 in0.0 mm 0.00 in0.0 mm 0.00 in0.0 mm
09:04 AM 49.1°F9.5°C 38.3°F3.5°C 66% 7.0 mph N11.3 kmh N 17.0 mph27.4 kmh 30.26 in1024.7 mb 0.00 in0.0 mm 0.00 in0.0 mm 0.00 in0.0 mm
09:11 AM 49.1°F9.5°C 37.8°F3.2°C 65% 8.0 mph N12.9 kmh N 19.0 mph30.6 kmh 30.26 in1024.7 mb 0.00 in0.0 mm 0.00 in0.0 mm 0.00 in0.0 mm
09:18 AM 49.6°F9.8°C 38.7°F3.7°C 66% 8.0 mph N12.9 kmh N 17.0 mph27.4 kmh 30.26 in1024.7 mb 0.00 in0.0 mm 0.00 in0.0 mm 0.00 in0.0 mm
09:25 AM 50.2°F10.1°C 38.8°F3.8°C 65% 8.0 mph N12.9 kmh N 21.0 mph33.8 kmh 30.26 in1024.7 mb 0.00 in0.0 mm 0.00 in0.0 mm 0.00 in0.0 mm
09:32 AM 50.5°F10.3°C 38.8°F3.8°C 64% 8.0 mph N12.9 kmh N 20.0 mph32.2 kmh 30.26 in1024.7 mb 0.00 in0.0 mm 0.00 in0.0 mm 0.00 in0.0 mm
09:39 AM 50.7°F10.4°C 39.0°F3.9°C 64% 9.0 mph N14.5 kmh N 20.0 mph32.2 kmh 30.26 in1024.7 mb 0.00 in0.0 mm 0.00 in0.0 mm 0.00 in0.0 mm
09:46 AM 50.9°F10.5°C 38.7°F3.7°C 63% 8.0 mph N12.9 kmh N 20.0 mph32.2 kmh 30.25 in1024.4 mb 0.00 in0.0 mm 0.00 in0.0 mm 0.00 in0.0 mm
09:53 AM 51.4°F10.8°C 39.4°F4.1°C 63% 8.0 mph N12.9 kmh N 20.0 mph32.2 kmh 30.25 in1024.4 mb 0.00 in0.0 mm 0.00 in0.0 mm 0.00 in0.0 mm
10:00 AM 51.8°F11.0°C 39.2°F4.0°C 62% 8.0 mph N12.9 kmh N 19.0 mph30.6 kmh 30.25 in1024.4 mb 0.00 in0.0 mm 0.00 in0.0 mm 0.00 in0.0 mm
10:07 AM 51.6°F10.9°C 38.7°F3.7°C 61% 11.0 mph N17.7 kmh N 19.0 mph30.6 kmh 30.25 in1024.4 mb 0.00 in0.0 mm 0.00 in0.0 mm 0.00 in0.0 mm
10:14 AM 52.2°F11.2°C 39.6°F4.2°C 62% 9.0 mph N14.5 kmh N 19.0 mph30.6 kmh 30.24 in1024.0 mb 0.00 in0.0 mm 0.00 in0.0 mm 0.00 in0.0 mm
10:21 AM 52.5°F11.4°C 39.4°F4.1°C 61% 8.0 mph N12.9 kmh N 17.0 mph27.4 kmh 30.24 in1024.0 mb 0.00 in0.0 mm 0.00 in0.0 mm 0.00 in0.0 mm
10:28 AM 53.2°F11.8°C 39.7°F4.3°C 60% 8.0 mph N12.9 kmh N 17.0 mph27.4 kmh 30.25 in1024.4 mb 0.00 in0.0 mm 0.00 in0.0 mm 0.00 in0.0 mm
10:35 AM 53.2°F11.8°C 39.7°F4.3°C 60% 7.0 mph N11.3 kmh N 16.0 mph25.7 kmh 30.25 in1024.4 mb 0.00 in0.0 mm 0.00 in0.0 mm 0.00 in0.0 mm
10:42 AM 52.7°F11.5°C 39.2°F4.0°C 60% 7.0 mph N11.3 kmh N 17.0 mph27.4 kmh 30.25 in1024.4 mb 0.00 in0.0 mm 0.00 in0.0 mm 0.00 in0.0 mm
10:49 AM 53.2°F11.8°C 39.7°F4.3°C 60% 7.0 mph N11.3 kmh N 16.0 mph25.7 kmh 30.24 in1024.0 mb 0.00 in0.0 mm 0.00 in0.0 mm 0.00 in0.0 mm
10:56 AM 53.1°F11.7°C 39.0°F3.9°C 59% 7.0 mph N11.3 kmh N 17.0 mph27.4 kmh 30.24 in1024.0 mb 0.00 in0.0 mm 0.00 in0.0 mm 0.00 in0.0 mm
11:03 AM 53.8°F12.1°C 39.7°F4.3°C 59% 9.0 mph N14.5 kmh N 25.0 mph40.2 kmh 30.23 in1023.7 mb 0.00 in0.0 mm 0.00 in0.0 mm 0.00 in0.0 mm
11:10 AM 53.4°F11.9°C 39.4°F4.1°C 59% 8.0 mph N12.9 kmh N 19.0 mph30.6 kmh 30.23 in1023.7 mb 0.00 in0.0 mm 0.00 in0.0 mm 0.00 in0.0 mm
11:17 AM 54.7°F12.6°C 40.3°F4.6°C 58% 8.0 mph N12.9 kmh N 19.0 mph30.6 kmh 30.23 in1023.7 mb 0.00 in0.0 mm 0.00 in0.0 mm 0.00 in0.0 mm
11:24 AM 54.0°F12.2°C 39.0°F3.9°C 57% 7.0 mph N11.3 kmh N 17.0 mph27.4 kmh 30.22 in1023.4 mb 0.00 in0.0 mm 0.00 in0.0 mm 0.00 in0.0 mm
11:31 AM 55.0°F12.8°C 41.0°F5.0°C 59% 7.0 mph N11.3 kmh N 19.0 mph30.6 kmh 30.22 in1023.4 mb 0.00 in0.0 mm 0.00 in0.0 mm 0.00 in0.0 mm
11:38 AM 55.2°F12.9°C 40.3°F4.6°C 57% 8.0 mph N12.9 kmh N 16.0 mph25.7 kmh 30.21 in1023.0 mb 0.00 in0.0 mm 0.00 in0.0 mm 0.00 in0.0 mm
11:45 AM 55.2°F12.9°C 40.3°F4.6°C 57% 7.0 mph N11.3 kmh N 17.0 mph27.4 kmh 30.21 in1023.0 mb 0.00 in0.0 mm 0.00 in0.0 mm 0.00 in0.0 mm
11:52 AM 55.4°F13.0°C 39.9°F4.4°C 56% 8.0 mph N12.9 kmh N 16.0 mph25.7 kmh 30.20 in1022.7 mb 0.00 in0.0 mm 0.00 in0.0 mm 0.00 in0.0 mm
11:59 AM 55.2°F12.9°C 39.9°F4.4°C 56% 9.0 mph N14.5 kmh N 19.0 mph30.6 kmh 30.19 in1022.4 mb 0.00 in0.0 mm 0.00 in0.0 mm 0.00 in0.0 mm
12:06 PM 55.9°F13.3°C 40.5°F4.7°C 56% 7.0 mph N11.3 kmh N 19.0 mph30.6 kmh 30.19 in1022.4 mb 0.00 in0.0 mm 0.00 in0.0 mm 0.00 in0.0 mm
12:13 PM 55.6°F13.1°C 40.6°F4.8°C 57% 8.0 mph N12.9 kmh N 21.0 mph33.8 kmh 30.18 in1022.0 mb 0.00 in0.0 mm 0.00 in0.0 mm 0.00 in0.0 mm
12:20 PM 55.8°F13.2°C 40.8°F4.9°C 57% 8.0 mph N12.9 kmh N 21.0 mph33.8 kmh 30.18 in1022.0 mb 0.00 in0.0 mm 0.00 in0.0 mm 0.00 in0.0 mm
12:27 PM 55.8°F13.2°C 40.3°F4.6°C 56% 8.0 mph N12.9 kmh N 23.0 mph37.0 kmh 30.17 in1021.7 mb 0.00 in0.0 mm 0.00 in0.0 mm 0.00 in0.0 mm
12:34 PM 56.7°F13.7°C 40.1°F4.5°C 54% 8.0 mph N12.9 kmh N 24.0 mph38.6 kmh 30.16 in1021.3 mb 0.00 in0.0 mm 0.00 in0.0 mm 0.00 in0.0 mm
12:41 PM 56.7°F13.7°C 41.0°F5.0°C 56% 8.0 mph N12.9 kmh N 24.0 mph38.6 kmh 30.16 in1021.3 mb 0.00 in0.0 mm 0.00 in0.0 mm 0.00 in0.0 mm
12:48 PM 56.5°F13.6°C 40.5°F4.7°C 55% 8.0 mph N12.9 kmh N 20.0 mph32.2 kmh 30.16 in1021.3 mb 0.00 in0.0 mm 0.00 in0.0 mm 0.00 in0.0 mm
12:55 PM 56.5°F13.6°C 39.9°F4.4°C 54% 7.0 mph N11.3 kmh N 17.0 mph27.4 kmh 30.15 in1021.0 mb 0.00 in0.0 mm 0.00 in0.0 mm 0.00 in0.0 mm
01:02 PM 56.8°F13.8°C 40.8°F4.9°C 55% 7.0 mph N11.3 kmh N 17.0 mph27.4 kmh 30.15 in1021.0 mb 0.00 in0.0 mm 0.00 in0.0 mm 0.00 in0.0 mm
01:09 PM 56.8°F13.8°C 40.5°F4.7°C 54% 8.0 mph N12.9 kmh N 20.0 mph32.2 kmh 30.14 in1020.7 mb 0.00 in0.0 mm 0.00 in0.0 mm 0.00 in0.0 mm
01:16 PM 56.8°F13.8°C 39.9°F4.4°C 53% 8.0 mph N12.9 kmh N 20.0 mph32.2 kmh 30.14 in1020.7 mb 0.00 in0.0 mm 0.00 in0.0 mm 0.00 in0.0 mm
01:23 PM 57.0°F13.9°C 40.1°F4.5°C 53% 7.0 mph N11.3 kmh N 15.0 mph24.1 kmh 30.14 in1020.7 mb 0.00 in0.0 mm 0.00 in0.0 mm 0.00 in0.0 mm
01:30 PM 57.2°F14.0°C 40.3°F4.6°C 53% 5.0 mph N8.0 kmh N 13.0 mph20.9 kmh 30.13 in1020.3 mb 0.00 in0.0 mm 0.00 in0.0 mm 0.00 in0.0 mm
01:37 PM 57.2°F14.0°C 41.2°F5.1°C 55% 7.0 mph N11.3 kmh N 15.0 mph24.1 kmh 30.13 in1020.3 mb 0.00 in0.0 mm 0.00 in0.0 mm 0.00 in0.0 mm
01:44 PM 57.7°F14.3°C 40.6°F4.8°C 53% 7.0 mph N11.3 kmh N 16.0 mph25.7 kmh 30.12 in1020.0 mb 0.00 in0.0 mm 0.00 in0.0 mm 0.00 in0.0 mm
01:51 PM 57.9°F14.4°C 41.4°F5.2°C 54% 5.0 mph N8.0 kmh N 15.0 mph24.1 kmh 30.12 in1020.0 mb 0.00 in0.0 mm 0.00 in0.0 mm 0.00 in0.0 mm
01:58 PM 57.0°F13.9°C 39.6°F4.2°C 52% 7.0 mph N11.3 kmh N 17.0 mph27.4 kmh 30.12 in1020.0 mb 0.00 in0.0 mm 0.00 in0.0 mm 0.00 in0.0 mm
02:05 PM 57.6°F14.2°C 40.5°F4.7°C 53% 7.0 mph N11.3 kmh N 16.0 mph25.7 kmh 30.12 in1020.0 mb 0.00 in0.0 mm 0.00 in0.0 mm 0.00 in0.0 mm
02:12 PM 57.2°F14.0°C 39.7°F4.3°C 52% 7.0 mph N11.3 kmh N 20.0 mph32.2 kmh 30.12 in1020.0 mb 0.00 in0.0 mm 0.00 in0.0 mm 0.00 in0.0 mm
02:19 PM 57.4°F14.1°C 40.5°F4.7°C 53% 5.0 mph N8.0 kmh N 17.0 mph27.4 kmh 30.12 in1020.0 mb 0.00 in0.0 mm 0.00 in0.0 mm 0.00 in0.0 mm
02:26 PM 57.4°F14.1°C 40.5°F4.7°C 53% 5.0 mph N8.0 kmh N 13.0 mph20.9 kmh 30.11 in1019.6 mb 0.00 in0.0 mm 0.00 in0.0 mm 0.00 in0.0 mm
02:33 PM 57.9°F14.4°C 40.5°F4.7°C 52% 5.0 mph N8.0 kmh N 16.0 mph25.7 kmh 30.11 in1019.6 mb 0.00 in0.0 mm 0.00 in0.0 mm 0.00 in0.0 mm
02:40 PM 58.5°F14.7°C 41.0°F5.0°C 52% 4.0 mph N6.4 kmh N 16.0 mph25.7 kmh 30.11 in1019.6 mb 0.00 in0.0 mm 0.00 in0.0 mm 0.00 in0.0 mm
02:47 PM 58.3°F14.6°C 40.3°F4.6°C 51% 5.0 mph NNE8.0 kmh NNE 16.0 mph25.7 kmh 30.11 in1019.6 mb 0.00 in0.0 mm 0.00 in0.0 mm 0.00 in0.0 mm
02:54 PM 58.3°F14.6°C 40.6°F4.8°C 52% 4.0 mph NE6.4 kmh NE 13.0 mph20.9 kmh 30.11 in1019.6 mb 0.00 in0.0 mm 0.00 in0.0 mm 0.00 in0.0 mm
03:01 PM 58.8°F14.9°C 41.2°F5.1°C 52% 5.0 mph NE8.0 kmh NE 15.0 mph24.1 kmh 30.10 in1019.3 mb 0.00 in0.0 mm 0.00 in0.0 mm 0.00 in0.0 mm
03:08 PM 58.6°F14.8°C 41.5°F5.3°C 53% 5.0 mph ENE8.0 kmh ENE 12.0 mph19.3 kmh 30.10 in1019.3 mb 0.00 in0.0 mm 0.00 in0.0 mm 0.00 in0.0 mm
03:15 PM 58.1°F14.5°C 40.6°F4.8°C 52% 4.0 mph NE6.4 kmh NE 13.0 mph20.9 kmh 30.09 in1019.0 mb 0.00 in0.0 mm 0.00 in0.0 mm 0.00 in0.0 mm
03:22 PM 57.7°F14.3°C 38.7°F3.7°C 49% 5.0 mph N8.0 kmh N 15.0 mph24.1 kmh 30.09 in1019.0 mb 0.00 in0.0 mm 0.00 in0.0 mm 0.00 in0.0 mm
03:29 PM 57.6°F14.2°C 38.5°F3.6°C 49% 5.0 mph N8.0 kmh N 13.0 mph20.9 kmh 30.08 in1018.6 mb 0.00 in0.0 mm 0.00 in0.0 mm 0.00 in0.0 mm
03:36 PM 57.4°F14.1°C 37.8°F3.2°C 48% 7.0 mph N11.3 kmh N 17.0 mph27.4 kmh 30.07 in1018.3 mb 0.00 in0.0 mm 0.00 in0.0 mm 0.00 in0.0 mm
03:43 PM 57.0°F13.9°C 37.4°F3.0°C 48% 7.0 mph N11.3 kmh N 15.0 mph24.1 kmh 30.07 in1018.3 mb 0.00 in0.0 mm 0.00 in0.0 mm 0.00 in0.0 mm
03:50 PM 56.8°F13.8°C 37.4°F3.0°C 48% 5.0 mph N8.0 kmh N 16.0 mph25.7 kmh 30.07 in1018.3 mb 0.00 in0.0 mm 0.00 in0.0 mm 0.00 in0.0 mm
03:57 PM 56.7°F13.7°C 37.6°F3.1°C 49% 5.0 mph N8.0 kmh N 16.0 mph25.7 kmh 30.07 in1018.3 mb 0.00 in0.0 mm 0.00 in0.0 mm 0.00 in0.0 mm
04:04 PM 56.8°F13.8°C 39.0°F3.9°C 51% 5.0 mph N8.0 kmh N 13.0 mph20.9 kmh 30.07 in1018.3 mb 0.00 in0.0 mm 0.00 in0.0 mm 0.00 in0.0 mm
04:11 PM 56.3°F13.5°C 38.8°F3.8°C 52% 5.0 mph N8.0 kmh N 15.0 mph24.1 kmh 30.07 in1018.3 mb 0.00 in0.0 mm 0.00 in0.0 mm 0.00 in0.0 mm
04:18 PM 55.8°F13.2°C 38.8°F3.8°C 53% 5.0 mph N8.0 kmh N 15.0 mph24.1 kmh 30.06 in1017.9 mb 0.00 in0.0 mm 0.00 in0.0 mm 0.00 in0.0 mm
04:25 PM 56.1°F13.4°C 39.2°F4.0°C 53% 5.0 mph N8.0 kmh N 11.0 mph17.7 kmh 30.05 in1017.6 mb 0.00 in0.0 mm 0.00 in0.0 mm 0.00 in0.0 mm
04:32 PM 55.9°F13.3°C 39.6°F4.2°C 54% 5.0 mph N8.0 kmh N 9.0 mph14.5 kmh 30.05 in1017.6 mb 0.00 in0.0 mm 0.00 in0.0 mm 0.00 in0.0 mm
04:39 PM 55.6°F13.1°C 39.2°F4.0°C 54% 4.0 mph N6.4 kmh N 13.0 mph20.9 kmh 30.05 in1017.6 mb 0.00 in0.0 mm 0.00 in0.0 mm 0.00 in0.0 mm
04:46 PM 55.2°F12.9°C 39.4°F4.1°C 55% 5.0 mph N8.0 kmh N 13.0 mph20.9 kmh 30.05 in1017.6 mb 0.00 in0.0 mm 0.00 in0.0 mm 0.00 in0.0 mm
04:53 PM 55.0°F12.8°C 39.2°F4.0°C 55% 4.0 mph N6.4 kmh N 12.0 mph19.3 kmh 30.05 in1017.6 mb 0.00 in0.0 mm 0.00 in0.0 mm 0.00 in0.0 mm
05:00 PM 54.7°F12.6°C 39.4°F4.1°C 56% 3.0 mph N4.8 kmh N 8.0 mph12.9 kmh 30.05 in1017.6 mb 0.00 in0.0 mm 0.00 in0.0 mm 0.00 in0.0 mm
05:07 PM 54.1°F12.3°C 39.2°F4.0°C 57% 1.0 mph N1.6 kmh N 5.0 mph8.0 kmh 30.05 in1017.6 mb 0.00 in0.0 mm 0.00 in0.0 mm 0.00 in0.0 mm
05:14 PM 54.0°F12.2°C 39.6°F4.2°C 58% 1.0 mph N1.6 kmh N 7.0 mph11.3 kmh 30.05 in1017.6 mb 0.00 in0.0 mm 0.00 in0.0 mm 0.00 in0.0 mm
05:21 PM 54.0°F12.2°C 39.4°F4.1°C 58% 3.0 mph N4.8 kmh N 8.0 mph12.9 kmh 30.05 in1017.6 mb 0.00 in0.0 mm 0.00 in0.0 mm 0.00 in0.0 mm
05:28 PM 53.8°F12.1°C 39.7°F4.3°C 59% 1.0 mph N1.6 kmh N 7.0 mph11.3 kmh 30.04 in1017.3 mb 0.00 in0.0 mm 0.00 in0.0 mm 0.00 in0.0 mm
05:35 PM 53.4°F11.9°C 39.4°F4.1°C 59% 1.0 mph N1.6 kmh N 5.0 mph8.0 kmh 30.04 in1017.3 mb 0.00 in0.0 mm 0.00 in0.0 mm 0.00 in0.0 mm
05:42 PM 53.2°F11.8°C 39.7°F4.3°C 60% 1.0 mph N1.6 kmh N 5.0 mph8.0 kmh 30.04 in1017.3 mb 0.00 in0.0 mm 0.00 in0.0 mm 0.00 in0.0 mm
05:49 PM 52.9°F11.6°C 39.4°F4.1°C 60% 1.0 mph N1.6 kmh N 5.0 mph8.0 kmh 30.03 in1016.9 mb 0.00 in0.0 mm 0.00 in0.0 mm 0.00 in0.0 mm
05:56 PM 52.5°F11.4°C 39.0°F3.9°C 60% 1.0 mph N1.6 kmh N 4.0 mph6.4 kmh 30.04 in1017.3 mb 0.00 in0.0 mm 0.00 in0.0 mm 0.00 in0.0 mm
06:03 PM 52.5°F11.4°C 39.4°F4.1°C 61% 1.0 mph N1.6 kmh N 7.0 mph11.3 kmh 30.03 in1016.9 mb 0.00 in0.0 mm 0.00 in0.0 mm 0.00 in0.0 mm
06:10 PM 51.8°F11.0°C 39.2°F4.0°C 62% 1.0 mph N1.6 kmh N 4.0 mph6.4 kmh 30.03 in1016.9 mb 0.00 in0.0 mm 0.00 in0.0 mm 0.00 in0.0 mm
06:17 PM 51.4°F10.8°C 38.8°F3.8°C 62% 1.0 mph N1.6 kmh N 4.0 mph6.4 kmh 30.02 in1016.6 mb 0.00 in0.0 mm 0.00 in0.0 mm 0.00 in0.0 mm
06:24 PM 51.4°F10.8°C 38.8°F3.8°C 62% 1.0 mph N1.6 kmh N 5.0 mph8.0 kmh 30.03 in1016.9 mb 0.00 in0.0 mm 0.00 in0.0 mm 0.00 in0.0 mm
06:31 PM 51.4°F10.8°C 38.8°F3.8°C 62% Calm Calm 5.0 mph8.0 kmh 30.03 in1016.9 mb 0.00 in0.0 mm 0.00 in0.0 mm 0.00 in0.0 mm
06:38 PM 51.1°F10.6°C 38.8°F3.8°C 63% 1.0 mph N1.6 kmh N 4.0 mph6.4 kmh 30.03 in1016.9 mb 0.00 in0.0 mm 0.00 in0.0 mm 0.00 in0.0 mm
06:45 PM 50.9°F10.5°C 38.7°F3.7°C 63% 1.0 mph N1.6 kmh N 4.0 mph6.4 kmh 30.03 in1016.9 mb 0.00 in0.0 mm 0.00 in0.0 mm 0.00 in0.0 mm
06:52 PM 50.7°F10.4°C 38.5°F3.6°C 63% 1.0 mph N1.6 kmh N 5.0 mph8.0 kmh 30.03 in1016.9 mb 0.00 in0.0 mm 0.00 in0.0 mm 0.00 in0.0 mm
06:59 PM 50.4°F10.2°C 38.7°F3.7°C 64% 1.0 mph N1.6 kmh N 5.0 mph8.0 kmh 30.02 in1016.6 mb 0.00 in0.0 mm 0.00 in0.0 mm 0.00 in0.0 mm
07:06 PM 50.4°F10.2°C 38.3°F3.5°C 63% 1.0 mph N1.6 kmh N 4.0 mph6.4 kmh 30.02 in1016.6 mb 0.00 in0.0 mm 0.00 in0.0 mm 0.00 in0.0 mm
07:13 PM 50.4°F10.2°C 38.3°F3.5°C 63% 1.0 mph N1.6 kmh N 4.0 mph6.4 kmh 30.02 in1016.6 mb 0.00 in0.0 mm 0.00 in0.0 mm 0.00 in0.0 mm
07:20 PM 50.2°F10.1°C 38.8°F3.8°C 65% 1.0 mph N1.6 kmh N 9.0 mph14.5 kmh 30.02 in1016.6 mb 0.00 in0.0 mm 0.00 in0.0 mm 0.00 in0.0 mm
07:27 PM 50.0°F10.0°C 38.7°F3.7°C 65% 1.0 mph N1.6 kmh N 4.0 mph6.4 kmh 30.03 in1016.9 mb 0.00 in0.0 mm 0.00 in0.0 mm 0.00 in0.0 mm
07:34 PM 49.8°F9.9°C 38.8°F3.8°C 66% 1.0 mph N1.6 kmh N 5.0 mph8.0 kmh 30.02 in1016.6 mb 0.00 in0.0 mm 0.00 in0.0 mm 0.00 in0.0 mm
07:41 PM 49.8°F9.9°C 38.8°F3.8°C 66% 3.0 mph N4.8 kmh N 5.0 mph8.0 kmh 30.02 in1016.6 mb 0.00 in0.0 mm 0.00 in0.0 mm 0.00 in0.0 mm
07:48 PM 49.6°F9.8°C 38.8°F3.8°C 66% 4.0 mph N6.4 kmh N 8.0 mph12.9 kmh 30.02 in1016.6 mb 0.00 in0.0 mm 0.00 in0.0 mm 0.00 in0.0 mm
07:55 PM 49.6°F9.8°C 38.7°F3.7°C 66% 3.0 mph N4.8 kmh N 8.0 mph12.9 kmh 30.01 in1016.3 mb 0.00 in0.0 mm 0.00 in0.0 mm 0.00 in0.0 mm
08:02 PM 49.5°F9.7°C 38.7°F3.7°C 66% 1.0 mph N1.6 kmh N 5.0 mph8.0 kmh 30.02 in1016.6 mb 0.00 in0.0 mm 0.00 in0.0 mm 0.00 in0.0 mm
08:09 PM 49.1°F9.5°C 38.7°F3.7°C 67% 3.0 mph N4.8 kmh N 5.0 mph8.0 kmh 30.01 in1016.3 mb 0.00 in0.0 mm 0.00 in0.0 mm 0.00 in0.0 mm
08:16 PM 48.9°F9.4°C 38.5°F3.6°C 67% 3.0 mph N4.8 kmh N 8.0 mph12.9 kmh 30.00 in1015.9 mb 0.00 in0.0 mm 0.00 in0.0 mm 0.00 in0.0 mm
08:23 PM 48.9°F9.4°C 38.5°F3.6°C 67% 3.0 mph N4.8 kmh N 8.0 mph12.9 kmh 30.00 in1015.9 mb 0.00 in0.0 mm 0.00 in0.0 mm 0.00 in0.0 mm
08:30 PM 48.7°F9.3°C 38.7°F3.7°C 68% 1.0 mph N1.6 kmh N 5.0 mph8.0 kmh 30.01 in1016.3 mb 0.00 in0.0 mm 0.00 in0.0 mm 0.00 in0.0 mm
08:37 PM 48.7°F9.3°C 38.7°F3.7°C 68% 1.0 mph N1.6 kmh N 5.0 mph8.0 kmh 30.01 in1016.3 mb 0.00 in0.0 mm 0.00 in0.0 mm 0.00 in0.0 mm
08:44 PM 48.9°F9.4°C 38.8°F3.8°C 68% 1.0 mph N1.6 kmh N 4.0 mph6.4 kmh 30.01 in1016.3 mb 0.00 in0.0 mm 0.00 in0.0 mm 0.00 in0.0 mm
08:51 PM 48.7°F9.3°C 38.7°F3.7°C 68% 1.0 mph N1.6 kmh N 5.0 mph8.0 kmh 30.00 in1015.9 mb 0.00 in0.0 mm 0.00 in0.0 mm 0.00 in0.0 mm
08:58 PM 48.7°F9.3°C 38.7°F3.7°C 68% 1.0 mph N1.6 kmh N 4.0 mph6.4 kmh 30.00 in1015.9 mb 0.00 in0.0 mm 0.00 in0.0 mm 0.00 in0.0 mm
09:05 PM 48.4°F9.1°C 38.3°F3.5°C 68% 1.0 mph N1.6 kmh N 4.0 mph6.4 kmh 30.00 in1015.9 mb 0.00 in0.0 mm 0.00 in0.0 mm 0.00 in0.0 mm
09:12 PM 48.4°F9.1°C 38.7°F3.7°C 69% 1.0 mph N1.6 kmh N 3.0 mph4.8 kmh 29.99 in1015.6 mb 0.00 in0.0 mm 0.00 in0.0 mm 0.00 in0.0 mm
09:19 PM 48.4°F9.1°C 38.7°F3.7°C 69% 1.0 mph N1.6 kmh N 4.0 mph6.4 kmh 29.99 in1015.6 mb 0.00 in0.0 mm 0.00 in0.0 mm 0.00 in0.0 mm
09:26 PM 48.0°F8.9°C 38.5°F3.6°C 69% 1.0 mph N1.6 kmh N 4.0 mph6.4 kmh 29.99 in1015.6 mb 0.00 in0.0 mm 0.00 in0.0 mm 0.00 in0.0 mm
09:33 PM 47.8°F8.8°C 38.5°F3.6°C 70% 1.0 mph N1.6 kmh N 3.0 mph4.8 kmh 29.99 in1015.6 mb 0.00 in0.0 mm 0.00 in0.0 mm 0.00 in0.0 mm
09:40 PM 47.5°F8.6°C 38.1°F3.4°C 70% Calm Calm 1.0 mph1.6 kmh 29.99 in1015.6 mb 0.00 in0.0 mm 0.00 in0.0 mm 0.00 in0.0 mm
09:47 PM 47.3°F8.5°C 38.3°F3.5°C 71% Calm Calm 1.0 mph1.6 kmh 29.99 in1015.6 mb 0.00 in0.0 mm 0.00 in0.0 mm 0.00 in0.0 mm
09:54 PM 47.3°F8.5°C 38.3°F3.5°C 71% Calm Calm 1.0 mph1.6 kmh 29.99 in1015.6 mb 0.00 in0.0 mm 0.00 in0.0 mm 0.00 in0.0 mm
10:01 PM 47.1°F8.4°C 38.1°F3.4°C 71% Calm Calm 1.0 mph1.6 kmh 29.99 in1015.6 mb 0.00 in0.0 mm 0.00 in0.0 mm 0.00 in0.0 mm
10:08 PM 46.9°F8.3°C 38.3°F3.5°C 72% Calm Calm -- 29.98 in1015.2 mb 0.00 in0.0 mm 0.00 in0.0 mm 0.00 in0.0 mm
10:15 PM 46.9°F8.3°C 38.5°F3.6°C 72% Calm Calm -- 29.98 in1015.2 mb 0.00 in0.0 mm 0.00 in0.0 mm 0.00 in0.0 mm
10:22 PM 46.9°F8.3°C 38.5°F3.6°C 72% Calm Calm -- 29.98 in1015.2 mb 0.00 in0.0 mm 0.00 in0.0 mm 0.00 in0.0 mm
10:29 PM 47.5°F8.6°C 38.8°F3.8°C 72% Calm Calm -- 29.97 in1014.9 mb 0.00 in0.0 mm 0.00 in0.0 mm 0.00 in0.0 mm
10:36 PM 47.7°F8.7°C 39.2°F4.0°C 72% Calm Calm -- 29.97 in1014.9 mb 0.00 in0.0 mm 0.00 in0.0 mm 0.00 in0.0 mm
10:43 PM 47.8°F8.8°C 39.2°F4.0°C 72% Calm Calm -- 29.96 in1014.6 mb 0.00 in0.0 mm 0.00 in0.0 mm 0.00 in0.0 mm
10:50 PM 48.4°F9.1°C 39.7°F4.3°C 72% Calm Calm -- 29.96 in1014.6 mb 0.00 in0.0 mm 0.00 in0.0 mm 0.00 in0.0 mm
10:57 PM 48.9°F9.4°C 39.9°F4.4°C 71% Calm Calm -- 29.96 in1014.6 mb 0.00 in0.0 mm 0.00 in0.0 mm 0.00 in0.0 mm
11:04 PM 49.3°F9.6°C 40.3°F4.6°C 71% Calm Calm -- 29.96 in1014.6 mb 0.00 in0.0 mm 0.00 in0.0 mm 0.00 in0.0 mm
11:11 PM 49.8°F9.9°C 40.8°F4.9°C 71% Calm Calm 4.0 mph6.4 kmh 29.95 in1014.2 mb 0.00 in0.0 mm 0.00 in0.0 mm 0.00 in0.0 mm
11:18 PM 50.5°F10.3°C 41.0°F5.0°C 70% 1.0 mph N1.6 kmh N 4.0 mph6.4 kmh 29.95 in1014.2 mb 0.00 in0.0 mm 0.00 in0.0 mm 0.00 in0.0 mm
11:25 PM 50.7°F10.4°C 41.4°F5.2°C 70% 1.0 mph N1.6 kmh N 4.0 mph6.4 kmh 29.94 in1013.9 mb 0.00 in0.0 mm 0.00 in0.0 mm 0.00 in0.0 mm
11:32 PM 51.3°F10.7°C 41.7°F5.4°C 70% 1.0 mph N1.6 kmh N 5.0 mph8.0 kmh 29.94 in1013.9 mb 0.00 in0.0 mm 0.00 in0.0 mm 0.00 in0.0 mm
11:39 PM 51.4°F10.8°C 42.1°F5.6°C 70% 1.0 mph N1.6 kmh N 5.0 mph8.0 kmh 29.93 in1013.5 mb 0.00 in0.0 mm 0.00 in0.0 mm 0.00 in0.0 mm
11:46 PM 51.6°F10.9°C 42.3°F5.7°C 70% 1.0 mph N1.6 kmh N 7.0 mph11.3 kmh 29.92 in1013.2 mb 0.00 in0.0 mm 0.00 in0.0 mm 0.00 in0.0 mm
11:53 PM 52.2°F11.2°C 42.6°F5.9°C 70% Calm Calm 3.0 mph4.8 kmh 29.91 in1012.9 mb 0.00 in0.0 mm 0.00 in0.0 mm 0.00 in0.0 mm